Time;durP1;ratioP1;P1;durP2;ratioP2;P2;SDS_P1;SDS_P2;PMS_P1;PMS_P2;Temp;Humidity;BMP_temperature;BMP_pressure;BME280_temperature;BME280_humidity;BME280_pressure;Samples;Min_cycle;Max_cycle;Signal;HPM_P1;HPM_P2
2023/06/27 00:00:33;;;;;;;8.40;5.33;;;;;;;;;;6215532;28;20029;-78
2023/06/27 00:03:33;;;;;;;10.45;5.90;;;;;;;;;;6217859;28;20064;-77
2023/06/27 00:06:37;;;;;;;9.38;5.75;;;;;;;;;;6216477;28;20381;-76
2023/06/27 00:09:38;;;;;;;10.43;7.32;;;;;;;;;;6218140;28;20455;-77
2023/06/27 00:12:38;;;;;;;12.35;7.10;;;;;;;;;;6218317;28;20378;-72
2023/06/27 00:15:38;;;;;;;13.00;8.67;;;;;;;;;;6217618;28;20021;-73
2023/06/27 00:18:40;;;;;;;10.32;7.22;;;;;;;;;;6218183;28;20018;-72
2023/06/27 00:21:41;;;;;;;15.77;8.15;;;;;;;;;;6210952;28;20066;-73
2023/06/27 00:24:41;;;;;;;15.17;7.57;;;;;;;;;;6211071;28;20026;-72
2023/06/27 00:27:42;;;;;;;11.93;6.88;;;;;;;;;;6217400;28;20038;-72
2023/06/27 00:30:42;;;;;;;10.23;6.70;;;;;;;;;;6214578;28;20370;-72
2023/06/27 00:33:42;;;;;;;12.63;6.47;;;;;;;;;;6218195;28;20103;-72
2023/06/27 00:36:42;;;;;;;8.90;5.80;;;;;;;;;;6217884;28;20022;-72
2023/06/27 00:39:42;;;;;;;12.83;6.80;;;;;;;;;;6216479;28;20461;-72
2023/06/27 00:42:42;;;;;;;9.90;7.30;;;;;;;;;;6199785;28;20076;-72
2023/06/27 00:45:43;;;;;;;9.50;6.22;;;;;;;;;;6217896;28;20050;-72
2023/06/27 00:48:43;;;;;;;11.70;7.00;;;;;;;;;;6218436;28;20026;-72
2023/06/27 00:51:46;;;;;;;12.37;7.17;;;;;;;;;;6214368;28;20714;-75
2023/06/27 00:54:46;;;;;;;11.20;8.00;;;;;;;;;;6215804;28;20022;-76
2023/06/27 00:57:46;;;;;;;13.97;8.03;;;;;;;;;;6217134;28;20831;-75
2023/06/27 01:00:49;;;;;;;13.07;7.87;;;;;;;;;;6217645;28;20092;-76
2023/06/27 01:03:49;;;;;;;11.23;6.93;;;;;;;;;;6216628;28;20452;-76
2023/06/27 01:06:59;;;;;;;10.40;6.82;;;;;;;;;;6212506;28;20064;-75
2023/06/27 01:10:03;;;;;;;12.60;7.07;;;;;;;;;;6210746;28;20590;-75
2023/06/27 01:13:06;;;;;;;13.38;6.82;;;;;;;;;;6209488;28;20030;-75
2023/06/27 01:16:06;;;;;;;10.65;6.97;;;;;;;;;;6213912;28;20033;-74
2023/06/27 01:19:08;;;;;;;10.53;7.40;;;;;;;;;;6216868;28;20022;-76
2023/06/27 01:22:09;;;;;;;13.43;7.72;;;;;;;;;;6217383;28;20120;-71
2023/06/27 01:25:12;;;;;;;10.67;6.77;;;;;;;;;;6217465;28;20010;-72
2023/06/27 01:28:14;;;;;;;16.33;7.72;;;;;;;;;;6217369;28;20575;-70
2023/06/27 01:31:35;;;;;;;13.48;8.68;;;;;;;;;;6217144;28;20037;-71
2023/06/27 01:34:45;;;;;;;17.40;9.40;;;;;;;;;;6217254;28;20054;-71
2023/06/27 01:37:49;;;;;;;12.65;8.82;;;;;;;;;;6214738;28;20784;-71
2023/06/27 01:40:51;;;;;;;16.10;9.43;;;;;;;;;;6199228;28;20018;-71
2023/06/27 01:43:53;;;;;;;14.52;9.70;;;;;;;;;;6217119;28;20045;-71
2023/06/27 01:46:53;;;;;;;;;;;;;;;;;;6217265;28;20014;-72
2023/06/27 01:49:53;;;;;;;13.23;7.72;;;;;;;;;;6217371;28;19913;-72
2023/06/27 01:52:53;;;;;;;15.40;9.77;;;;;;;;;;6217111;28;20104;-72
2023/06/27 01:55:53;;;;;;;15.13;8.60;;;;;;;;;;6217309;28;20026;-73
2023/06/27 01:58:54;;;;;;;12.20;9.33;;;;;;;;;;6217214;28;20022;-73
2023/06/27 02:01:54;;;;;;;13.27;8.77;;;;;;;;;;6216932;28;20129;-76
2023/06/27 02:04:54;;;;;;;10.70;7.17;;;;;;;;;;6219224;28;20068;-75
2023/06/27 02:07:54;;;;;;;15.80;10.52;;;;;;;;;;6220988;28;20049;-74
2023/06/27 02:10:54;;;;;;;15.00;10.73;;;;;;;;;;6221538;28;20014;-74
2023/06/27 02:13:54;;;;;;;17.95;10.68;;;;;;;;;;6216724;28;20504;-74
2023/06/27 02:16:55;;;;;;;14.98;10.55;;;;;;;;;;6219113;28;20034;-75
2023/06/27 02:19:55;;;;;;;16.33;12.43;;;;;;;;;;6218410;28;20117;-75
2023/06/27 02:22:55;;;;;;;18.47;13.87;;;;;;;;;;6220869;28;20022;-76
2023/06/27 02:25:55;;;;;;;18.25;12.55;;;;;;;;;;6219387;28;20010;-76
2023/06/27 02:28:55;;;;;;;16.17;11.07;;;;;;;;;;6220829;28;20487;-75
2023/06/27 02:31:56;;;;;;;15.50;11.97;;;;;;;;;;6221458;28;20030;-76
2023/06/27 02:34:56;;;;;;;15.23;10.20;;;;;;;;;;6218889;28;20604;-76
2023/06/27 02:37:56;;;;;;;16.08;11.27;;;;;;;;;;6220618;28;20030;-76
2023/06/27 02:40:56;;;;;;;17.83;12.02;;;;;;;;;;6220409;28;20014;-76
2023/06/27 02:43:57;;;;;;;18.60;12.68;;;;;;;;;;6219881;28;20068;-76
2023/06/27 02:46:57;;;;;;;19.93;14.93;;;;;;;;;;6214670;28;20022;-76
2023/06/27 02:49:57;;;;;;;20.83;14.18;;;;;;;;;;6220208;28;20014;-76
2023/06/27 02:52:57;;;;;;;18.38;13.77;;;;;;;;;;6219921;28;20131;-76
2023/06/27 02:56:01;;;;;;;17.75;14.32;;;;;;;;;;6220156;28;20029;-77
2023/06/27 02:59:02;;;;;;;19.88;12.50;;;;;;;;;;6216004;28;20060;-77
2023/06/27 03:02:02;;;;;;;20.40;13.43;;;;;;;;;;6219259;28;20469;-76
2023/06/27 03:05:02;;;;;;;20.93;14.57;;;;;;;;;;6219875;28;20032;-77
2023/06/27 03:08:02;;;;;;;20.53;15.07;;;;;;;;;;6220198;28;20025;-76
2023/06/27 03:11:03;;;;;;;20.20;14.93;;;;;;;;;;6219594;28;20507;-76
2023/06/27 03:14:03;;;;;;;19.50;13.87;;;;;;;;;;6219254;28;20484;-73
2023/06/27 03:17:03;;;;;;;24.13;16.10;;;;;;;;;;6217514;28;20014;-73
2023/06/27 03:20:04;;;;;;;18.13;14.57;;;;;;;;;;6215122;28;20040;-73
2023/06/27 03:23:04;;;;;;;20.77;14.90;;;;;;;;;;6219023;28;20021;-73
2023/06/27 03:26:04;;;;;;;22.17;14.95;;;;;;;;;;6216387;28;20039;-73
2023/06/27 03:29:04;;;;;;;22.77;16.20;;;;;;;;;;6219635;28;20583;-73
2023/06/27 03:32:05;;;;;;;20.77;16.05;;;;;;;;;;6219597;28;20543;-74
2023/06/27 03:35:05;;;;;;;16.70;13.03;;;;;;;;;;6219442;28;20057;-73
2023/06/27 03:38:05;;;;;;;23.20;16.27;;;;;;;;;;6218987;28;20026;-73
2023/06/27 03:41:05;;;;;;;21.98;15.43;;;;;;;;;;6218882;28;20397;-73
2023/06/27 03:44:08;;;;;;;20.10;13.57;;;;;;;;;;6219480;28;20018;-75
2023/06/27 03:47:08;;;;;;;17.98;13.57;;;;;;;;;;6217651;28;20033;-75
2023/06/27 03:50:08;;;;;;;21.67;14.87;;;;;;;;;;6219875;28;20022;-75
2023/06/27 03:53:08;;;;;;;20.87;13.83;;;;;;;;;;6218620;28;20029;-76
2023/06/27 03:56:09;;;;;;;20.83;15.77;;;;;;;;;;6218953;28;20080;-76
2023/06/27 03:59:09;;;;;;;16.90;13.52;;;;;;;;;;6201143;28;20072;-76
2023/06/27 04:02:09;;;;;;;17.60;12.83;;;;;;;;;;6215898;28;20473;-77
2023/06/27 04:05:09;;;;;;;19.50;15.30;;;;;;;;;;6218749;28;20016;-76
2023/06/27 04:08:09;;;;;;;20.77;15.77;;;;;;;;;;6217395;28;20028;-76
2023/06/27 04:11:10;;;;;;;15.43;10.85;;;;;;;;;;6217714;28;20396;-77
2023/06/27 04:14:10;;;;;;;17.13;12.90;;;;;;;;;;6218092;28;20060;-75
2023/06/27 04:17:10;;;;;;;19.10;14.82;;;;;;;;;;6218002;28;20103;-76
2023/06/27 04:20:11;;;;;;;19.65;14.05;;;;;;;;;;6217287;28;20017;-74
2023/06/27 04:23:12;;;;;;;17.95;15.07;;;;;;;;;;6219252;28;20018;-75
2023/06/27 04:26:15;;;;;;;19.40;13.87;;;;;;;;;;6217127;28;20055;-75
2023/06/27 04:29:15;;;;;;;18.40;13.52;;;;;;;;;;6216192;28;20419;-75
2023/06/27 04:32:15;;;;;;;16.67;12.30;;;;;;;;;;6214778;28;20037;-76
2023/06/27 04:35:18;;;;;;;16.80;12.63;;;;;;;;;;6217972;28;20026;-76
2023/06/27 04:38:18;;;;;;;17.10;11.75;;;;;;;;;;6216398;28;20484;-75
2023/06/27 04:41:19;;;;;;;18.23;12.80;;;;;;;;;;6217692;28;20044;-75
2023/06/27 04:44:21;;;;;;;18.33;10.90;;;;;;;;;;6196873;28;20376;-75
2023/06/27 04:47:22;;;;;;;16.48;10.93;;;;;;;;;;6216383;28;20508;-76
2023/06/27 04:50:22;;;;;;;15.88;11.10;;;;;;;;;;6217953;28;20045;-75
2023/06/27 04:53:23;;;;;;;15.38;10.23;;;;;;;;;;6216006;28;20022;-75
2023/06/27 04:56:23;;;;;;;14.37;10.40;;;;;;;;;;6214566;28;20022;-76
2023/06/27 04:59:24;;;;;;;13.50;10.07;;;;;;;;;;6217188;28;20087;-76
2023/06/27 05:02:24;;;;;;;12.80;10.05;;;;;;;;;;6217453;28;20022;-76
2023/06/27 05:05:32;;;;;;;13.65;9.45;;;;;;;;;;6217542;28;20053;-76
2023/06/27 05:08:34;;;;;;;14.52;10.85;;;;;;;;;;6216860;28;20503;-76
2023/06/27 05:11:34;;;;;;;17.52;10.95;;;;;;;;;;6215500;28;20137;-76
2023/06/27 05:14:35;;;;;;;13.03;8.80;;;;;;;;;;6213599;28;20709;-76
2023/06/27 05:17:35;;;;;;;16.00;9.73;;;;;;;;;;6216768;28;20366;-77
2023/06/27 05:20:35;;;;;;;13.87;8.17;;;;;;;;;;6217469;28;20257;-78
2023/06/27 05:23:35;;;;;;;15.77;7.93;;;;;;;;;;6217299;28;20136;-80
2023/06/27 05:26:35;;;;;;;8.83;6.60;;;;;;;;;;6217069;28;20032;-79
2023/06/27 05:29:36;;;;;;;11.07;6.93;;;;;;;;;;6211709;28;20077;-79
2023/06/27 05:32:36;;;;;;;19.23;6.83;;;;;;;;;;6219539;28;20515;-79
2023/06/27 05:35:36;;;;;;;11.45;6.70;;;;;;;;;;6216990;28;20041;-78
2023/06/27 05:38:36;;;;;;;8.97;5.57;;;;;;;;;;6215732;28;20030;-79
2023/06/27 05:41:36;;;;;;;12.88;6.25;;;;;;;;;;6225267;28;20105;-78
2023/06/27 05:44:37;;;;;;;9.30;6.20;;;;;;;;;;6218674;28;20029;-79
2023/06/27 05:47:37;;;;;;;10.23;6.23;;;;;;;;;;6221355;28;20388;-80
2023/06/27 05:50:37;;;;;;;16.30;6.83;;;;;;;;;;6201925;28;20034;-79
2023/06/27 05:53:37;;;;;;;14.73;5.93;;;;;;;;;;6221321;28;20034;-79
2023/06/27 05:56:38;;;;;;;10.37;5.17;;;;;;;;;;6221327;28;20112;-78
2023/06/27 05:59:38;;;;;;;13.77;6.00;;;;;;;;;;6220790;28;20040;-79
2023/06/27 06:02:38;;;;;;;16.03;6.23;;;;;;;;;;6218344;28;20462;-78
2023/06/27 06:05:38;;;;;;;13.80;5.13;;;;;;;;;;6220149;28;20022;-78
2023/06/27 06:08:39;;;;;;;12.57;5.33;;;;;;;;;;6215691;28;20435;-79
2023/06/27 06:11:39;;;;;;;7.63;5.00;;;;;;;;;;6214462;28;20026;-74
2023/06/27 06:14:39;;;;;;;9.77;4.70;;;;;;;;;;6219386;28;20034;-75
2023/06/27 06:17:39;;;;;;;7.07;4.95;;;;;;;;;;6224705;28;20034;-75
2023/06/27 06:20:40;;;;;;;10.97;5.40;;;;;;;;;;6221339;28;20077;-76
2023/06/27 06:23:40;;;;;;;13.45;4.85;;;;;;;;;;6202738;28;20014;-75
2023/06/27 06:26:40;;;;;;;6.77;4.47;;;;;;;;;;6217863;28;20486;-75
2023/06/27 06:29:40;;;;;;;9.57;4.60;;;;;;;;;;6213799;28;20063;-76
2023/06/27 06:32:41;;;;;;;6.32;3.97;;;;;;;;;;6216749;28;20076;-75
2023/06/27 06:35:41;;;;;;;9.10;3.97;;;;;;;;;;6220062;28;20033;-75
2023/06/27 06:38:41;;;;;;;11.73;5.43;;;;;;;;;;6214866;28;20061;-75
2023/06/27 06:41:41;;;;;;;10.03;4.53;;;;;;;;;;6219483;28;20014;-83
2023/06/27 06:44:42;;;;;;;7.22;4.28;;;;;;;;;;6219727;28;20429;-82
2023/06/27 06:47:42;;;;;;;9.70;4.97;;;;;;;;;;6198213;28;20018;-81
2023/06/27 06:50:42;;;;;;;13.10;4.60;;;;;;;;;;6216929;28;20427;-79
2023/06/27 06:53:42;;;;;;;10.80;4.67;;;;;;;;;;6218188;28;20025;-80
2023/06/27 06:56:42;;;;;;;12.27;4.80;;;;;;;;;;6219331;28;20109;-79
2023/06/27 06:59:44;;;;;;;10.60;5.90;;;;;;;;;;6201871;28;20017;-80
2023/06/27 07:02:44;;;;;;;12.75;5.50;;;;;;;;;;6219716;28;20018;-80
2023/06/27 07:05:45;;;;;;;12.03;5.67;;;;;;;;;;6219166;28;20037;-81
2023/06/27 07:08:45;;;;;;;10.30;5.90;;;;;;;;;;6218176;28;20353;-80
2023/06/27 07:11:45;;;;;;;14.27;5.45;;;;;;;;;;6216734;28;20527;-82
2023/06/27 07:14:45;;;;;;;10.97;5.03;;;;;;;;;;6213883;28;20024;-81
2023/06/27 07:17:45;;;;;;;9.13;5.67;;;;;;;;;;6218060;28;20476;-81
2023/06/27 07:20:45;;;;;;;11.88;4.93;;;;;;;;;;6201683;28;20156;-80
2023/06/27 07:23:46;;;;;;;14.50;5.33;;;;;;;;;;6219083;28;20504;-80
2023/06/27 07:26:46;;;;;;;9.43;6.83;;;;;;;;;;6219251;28;20488;-79
2023/06/27 07:29:46;;;;;;;10.90;5.80;;;;;;;;;;6218076;28;20136;-80
2023/06/27 07:32:47;;;;;;;8.03;4.53;;;;;;;;;;6214184;28;20022;-80
2023/06/27 07:35:47;;;;;;;9.10;5.60;;;;;;;;;;6218868;28;20014;-80
2023/06/27 07:38:47;;;;;;;9.13;5.73;;;;;;;;;;6219105;28;20026;-81
2023/06/27 07:41:47;;;;;;;8.90;5.77;;;;;;;;;;6218472;28;20014;-74
2023/06/27 07:44:48;;;;;;;10.77;6.23;;;;;;;;;;6214763;28;20006;-74
2023/06/27 07:47:48;;;;;;;9.33;6.70;;;;;;;;;;6218663;28;20111;-74
2023/06/27 07:50:48;;;;;;;11.50;5.90;;;;;;;;;;6219444;28;20018;-74
2023/06/27 07:53:48;;;;;;;10.87;5.73;;;;;;;;;;6215825;28;20018;-82
2023/06/27 07:56:48;;;;;;;9.47;5.80;;;;;;;;;;6218822;28;20017;-83
2023/06/27 07:59:49;;;;;;;13.00;7.67;;;;;;;;;;6219036;28;20496;-81
2023/06/27 08:02:49;;;;;;;9.05;6.18;;;;;;;;;;6216150;28;20372;-78
2023/06/27 08:05:49;;;;;;;12.60;6.37;;;;;;;;;;6216980;28;20018;-82
2023/06/27 08:08:49;;;;;;;10.67;6.73;;;;;;;;;;6218602;28;20093;-80
2023/06/27 08:11:51;;;;;;;9.45;7.28;;;;;;;;;;6218477;28;20383;-74
2023/06/27 08:14:51;;;;;;;;;;;;;;;;;;6219049;28;20036;-74
2023/06/27 08:17:51;;;;;;;12.50;7.15;;;;;;;;;;6216863;28;19913;-74
2023/06/27 08:20:52;;;;;;;10.73;7.50;;;;;;;;;;6217850;28;20093;-74
2023/06/27 08:23:52;;;;;;;13.70;8.37;;;;;;;;;;6216078;28;20014;-74
2023/06/27 08:26:55;;;;;;;10.70;6.67;;;;;;;;;;6200239;28;20017;-74
2023/06/27 08:29:55;;;;;;;13.23;8.25;;;;;;;;;;6214419;28;20037;-74
2023/06/27 08:32:56;;;;;;;9.77;7.07;;;;;;;;;;6217575;28;20026;-73
2023/06/27 08:35:56;;;;;;;11.13;6.97;;;;;;;;;;6217825;28;20017;-73
2023/06/27 08:38:56;;;;;;;12.30;8.50;;;;;;;;;;6217800;28;20026;-74
2023/06/27 08:41:57;;;;;;;12.40;5.77;;;;;;;;;;6217741;28;20029;-74
2023/06/27 08:45:00;;;;;;;11.93;7.03;;;;;;;;;;6215840;28;20429;-74
2023/06/27 08:48:01;;;;;;;9.23;6.07;;;;;;;;;;6207749;28;20468;-74
2023/06/27 08:51:01;;;;;;;11.17;5.13;;;;;;;;;;6213966;28;20072;-74
2023/06/27 08:54:16;;;;;;;10.73;5.20;;;;;;;;;;6217732;28;20498;-73
2023/06/27 08:57:17;;;;;;;11.32;5.88;;;;;;;;;;6212078;28;20030;-74
2023/06/27 09:00:21;;;;;;;8.38;5.30;;;;;;;;;;6216774;28;20049;-74
2023/06/27 09:03:22;;;;;;;9.75;5.65;;;;;;;;;;6216988;28;20071;-83
2023/06/27 09:06:22;;;;;;;9.03;4.47;;;;;;;;;;6217332;28;20018;-83
2023/06/27 09:09:23;;;;;;;9.73;5.10;;;;;;;;;;6217716;28;20037;-81
2023/06/27 09:12:24;;;;;;;8.37;5.17;;;;;;;;;;6217993;28;20128;-75
2023/06/27 09:15:24;;;;;;;10.80;4.80;;;;;;;;;;6214693;28;20022;-75
2023/06/27 09:18:24;;;;;;;9.80;4.27;;;;;;;;;;6219986;28;20032;-74
2023/06/27 09:21:25;;;;;;;9.47;5.93;;;;;;;;;;6221655;28;20137;-75
2023/06/27 09:24:27;;;;;;;10.98;4.57;;;;;;;;;;6221357;28;20041;-85
2023/06/27 09:27:28;;;;;;;8.65;4.07;;;;;;;;;;6222283;28;20056;-84
2023/06/27 09:30:30;;;;;;;6.88;3.60;;;;;;;;;;6221469;28;20446;-84
2023/06/27 09:33:30;;;;;;;7.50;4.15;;;;;;;;;;6222797;28;20025;-81
2023/06/27 09:36:34;;;;;;;7.03;3.60;;;;;;;;;;6222188;28;20064;-82
2023/06/27 09:39:34;;;;;;;6.78;3.50;;;;;;;;;;6221651;28;20396;-84
2023/06/27 09:42:46;;;;;;;6.30;3.73;;;;;;;;;;6222019;28;20028;-83
2023/06/27 09:45:56;;;;;;;6.60;3.80;;;;;;;;;;6215757;28;20543;-85
2023/06/27 09:48:56;;;;;;;5.28;3.50;;;;;;;;;;6221194;28;20554;-81
2023/06/27 09:51:56;;;;;;;5.10;3.45;;;;;;;;;;6221437;28;20026;-83
2023/06/27 09:54:57;;;;;;;6.00;3.83;;;;;;;;;;6221687;28;20373;-82
2023/06/27 09:57:57;;;;;;;9.40;3.47;;;;;;;;;;6220601;28;20025;-81
2023/06/27 10:01:04;;;;;;;5.13;2.73;;;;;;;;;;6221868;28;20022;-82
2023/06/27 10:04:05;;;;;;;6.32;3.20;;;;;;;;;;6221871;28;20468;-82
2023/06/27 10:07:07;;;;;;;4.78;2.70;;;;;;;;;;6218020;28;20240;-79
2023/06/27 10:10:07;;;;;;;7.55;3.08;;;;;;;;;;6195883;28;20103;-81
2023/06/27 10:13:07;;;;;;;5.50;2.22;;;;;;;;;;6212948;28;20010;-79
2023/06/27 10:16:08;;;;;;;4.00;2.20;;;;;;;;;;6218503;28;20555;-82
2023/06/27 10:19:08;;;;;;;6.80;2.47;;;;;;;;;;6193638;28;20567;-82
2023/06/27 10:22:10;;;;;;;3.63;2.13;;;;;;;;;;6221342;28;20018;-81
2023/06/27 10:25:11;;;;;;;11.00;3.15;;;;;;;;;;6220363;28;20400;-80
2023/06/27 10:28:13;;;;;;;3.97;1.95;;;;;;;;;;6219695;28;20065;-81
2023/06/27 10:31:33;;;;;;;4.10;2.08;;;;;;;;;;6220077;28;20496;-80
2023/06/27 10:34:43;;;;;;;8.85;1.88;;;;;;;;;;6210101;28;20014;-73
2023/06/27 10:38:03;;;;;;;3.95;1.70;;;;;;;;;;6212681;28;20095;-73
2023/06/27 10:41:06;;;;;;;5.07;2.53;;;;;;;;;;6215283;28;20053;-73
2023/06/27 10:44:10;;;;;;;4.97;1.80;;;;;;;;;;6220498;28;20539;-74
2023/06/27 10:47:16;;;;;;;4.50;2.00;;;;;;;;;;6218910;28;20029;-74
2023/06/27 10:50:20;;;;;;;5.32;2.03;;;;;;;;;;6218984;28;20033;-74
2023/06/27 10:53:21;;;;;;;6.40;2.90;;;;;;;;;;6219764;28;20510;-73
2023/06/27 10:56:27;;;;;;;4.93;2.22;;;;;;;;;;6199552;28;20022;-73
2023/06/27 10:59:28;;;;;;;7.13;2.45;;;;;;;;;;6219240;28;20036;-74
2023/06/27 11:02:34;;;;;;;3.23;2.20;;;;;;;;;;6219180;28;20021;-74
2023/06/27 11:05:46;;;;;;;6.35;2.20;;;;;;;;;;6217451;28;20038;-74
2023/06/27 11:08:47;;;;;;;;;;;;;;;;;;6214543;28;20025;-74
2023/06/27 11:11:54;;;;;;;5.88;2.08;;;;;;;;;;6219114;28;19913;-74
2023/06/27 11:14:54;;;;;;;6.75;2.65;;;;;;;;;;6217626;28;20025;-74
2023/06/27 11:17:55;;;;;;;5.30;2.03;;;;;;;;;;6213763;28;20034;-74
2023/06/27 11:20:56;;;;;;;9.87;2.07;;;;;;;;;;6217344;28;20496;-74
2023/06/27 11:23:59;;;;;;;7.50;2.60;;;;;;;;;;6217124;28;20030;-74
2023/06/27 11:27:00;;;;;;;4.13;1.58;;;;;;;;;;6210305;28;20380;-75
2023/06/27 11:30:00;;;;;;;4.43;2.10;;;;;;;;;;6219239;28;20069;-75
2023/06/27 11:33:02;;;;;;;5.57;2.00;;;;;;;;;;6218634;28;20025;-82
2023/06/27 11:36:02;;;;;;;5.30;1.92;;;;;;;;;;6215488;28;20029;-81
2023/06/27 11:39:03;;;;;;;3.70;1.70;;;;;;;;;;6218145;28;20042;-82
2023/06/27 11:42:03;;;;;;;4.13;1.60;;;;;;;;;;6216896;28;20036;-80
2023/06/27 11:45:03;;;;;;;4.07;1.60;;;;;;;;;;6216863;28;20486;-82
2023/06/27 11:48:04;;;;;;;4.33;1.87;;;;;;;;;;6214733;28;20493;-81
2023/06/27 11:51:06;;;;;;;3.03;1.53;;;;;;;;;;6217299;28;20585;-82
2023/06/27 11:54:07;;;;;;;3.42;2.13;;;;;;;;;;6219487;28;20037;-80
2023/06/27 11:57:07;;;;;;;8.98;2.42;;;;;;;;;;6214000;28;20113;-78
2023/06/27 12:00:12;;;;;;;1.83;1.70;;;;;;;;;;6218211;28;20025;-82
2023/06/27 12:03:12;;;;;;;8.27;2.13;;;;;;;;;;6209606;28;20059;-84
2023/06/27 12:06:24;;;;;;;5.53;2.27;;;;;;;;;;6212929;28;20700;-83
2023/06/27 12:09:25;;;;;;;5.53;1.83;;;;;;;;;;6212568;28;20060;-83
2023/06/27 12:12:26;;;;;;;7.50;2.33;;;;;;;;;;6214725;28;20030;-83
2023/06/27 12:15:26;;;;;;;6.83;1.67;;;;;;;;;;6215384;28;20037;-84
2023/06/27 12:18:27;;;;;;;2.87;1.70;;;;;;;;;;6212135;28;20041;-84
2023/06/27 12:21:27;;;;;;;6.03;2.50;;;;;;;;;;6218458;28;20022;-81
2023/06/27 12:24:27;;;;;;;2.27;1.40;;;;;;;;;;6215027;28;20026;-81
2023/06/27 12:27:33;;;;;;;4.60;1.50;;;;;;;;;;6199090;28;20104;-80
2023/06/27 12:30:35;;;;;;;6.25;1.63;;;;;;;;;;6197271;28;20137;-81
2023/06/27 12:33:35;;;;;;;3.42;1.80;;;;;;;;;;6216641;28;20018;-82
2023/06/27 12:36:36;;;;;;;3.33;1.30;;;;;;;;;;6214970;28;20054;-83
2023/06/27 12:39:37;;;;;;;4.30;1.25;;;;;;;;;;6218830;28;20030;-81
2023/06/27 12:42:37;;;;;;;4.00;1.70;;;;;;;;;;6218225;28;20499;-82
2023/06/27 12:45:37;;;;;;;2.83;1.53;;;;;;;;;;6211816;28;20018;-82
2023/06/27 12:48:38;;;;;;;2.50;2.00;;;;;;;;;;6217511;28;20022;-81
2023/06/27 12:51:38;;;;;;;3.83;1.50;;;;;;;;;;6198862;28;20084;-74
2023/06/27 12:54:38;;;;;;;2.90;1.63;;;;;;;;;;6217709;28;20018;-82
2023/06/27 12:57:38;;;;;;;2.63;1.55;;;;;;;;;;6218652;28;20465;-83
2023/06/27 13:00:39;;;;;;;4.18;1.95;;;;;;;;;;6217462;28;20010;-82
2023/06/27 13:03:40;;;;;;;5.20;1.90;;;;;;;;;;6217469;28;20556;-80
2023/06/27 13:06:40;;;;;;;3.40;1.20;;;;;;;;;;6199119;28;20006;-82
2023/06/27 13:09:40;;;;;;;3.08;1.55;;;;;;;;;;6213488;28;20058;-81
2023/06/27 13:12:40;;;;;;;5.30;3.07;;;;;;;;;;6213553;28;20019;-83
2023/06/27 13:15:41;;;;;;;2.30;1.10;;;;;;;;;;6214024;28;20109;-81
2023/06/27 13:18:41;;;;;;;4.03;2.47;;;;;;;;;;6213172;28;20077;-83
2023/06/27 13:21:42;;;;;;;4.43;1.35;;;;;;;;;;6220420;28;20057;-83
2023/06/27 13:24:42;;;;;;;;;;;;;;;;;;6216814;28;20022;-83
2023/06/27 13:27:43;;;;;;;2.85;1.80;;;;;;;;;;6212991;28;20296;-82
2023/06/27 13:30:43;;;;;;;4.30;1.53;;;;;;;;;;6217160;28;20013;-84
2023/06/27 13:33:43;;;;;;;3.95;1.65;;;;;;;;;;6217571;28;20480;-80
2023/06/27 13:36:43;;;;;;;5.00;1.37;;;;;;;;;;6217139;28;20407;-83
2023/06/27 13:39:44;;;;;;;4.60;2.17;;;;;;;;;;6217090;28;20026;-85
2023/06/27 13:42:44;;;;;;;4.13;1.50;;;;;;;;;;6216876;28;20388;-82
2023/06/27 13:45:46;;;;;;;7.70;1.65;;;;;;;;;;6212957;28;20412;-84
2023/06/27 13:48:46;;;;;;;5.20;1.90;;;;;;;;;;6216031;28;20029;-82
2023/06/27 13:51:47;;;;;;;5.17;2.07;;;;;;;;;;6217101;28;20030;-73
2023/06/27 13:54:47;;;;;;;5.13;1.67;;;;;;;;;;6216508;28;20777;-73
2023/06/27 13:57:48;;;;;;;4.78;1.30;;;;;;;;;;6214597;28;20076;-73
2023/06/27 14:00:50;;;;;;;6.00;1.48;;;;;;;;;;6218718;28;20022;-73
2023/06/27 14:03:50;;;;;;;3.25;1.58;;;;;;;;;;6221260;28;20010;-84
2023/06/27 14:06:53;;;;;;;3.83;1.20;;;;;;;;;;6219207;28;20065;-83
2023/06/27 14:09:55;;;;;;;2.97;0.73;;;;;;;;;;6205726;28;20021;-82
2023/06/27 14:12:56;;;;;;;2.33;1.00;;;;;;;;;;6225604;28;20017;-85
2023/06/27 14:15:56;;;;;;;3.43;1.60;;;;;;;;;;6228263;28;20021;-82
2023/06/27 14:18:57;;;;;;;3.10;1.38;;;;;;;;;;6223858;28;20261;-82
2023/06/27 14:21:57;;;;;;;4.55;1.27;;;;;;;;;;6228185;28;20559;-81
2023/06/27 14:24:57;;;;;;;;;;;;;;;;;;6225438;28;20021;-81
2023/06/27 14:27:58;;;;;;;6.97;1.67;;;;;;;;;;6220305;28;19967;-80
2023/06/27 14:30:58;;;;;;;;;;;;;;;;;;6214483;28;20075;-83
2023/06/27 14:33:59;;;;;;;3.80;1.02;;;;;;;;;;6223866;28;20268;-82
2023/06/27 14:36:59;;;;;;;;;;;;;;;;;;6225012;28;20076;-84
2023/06/27 14:39:59;;;;;;;3.20;1.40;;;;;;;;;;6214894;28;19917;-86
2023/06/27 14:43:00;;;;;;;4.93;1.92;;;;;;;;;;6221991;28;20021;-85
2023/06/27 14:46:00;;;;;;;4.78;1.60;;;;;;;;;;6220574;28;20029;-84
2023/06/27 14:49:00;;;;;;;;;;;;;;;;;;6217846;28;20491;-83
2023/06/27 14:52:00;;;;;;;1.40;1.30;;;;;;;;;;6216821;28;19909;-84
2023/06/27 14:55:01;;;;;;;2.63;1.37;;;;;;;;;;6219039;28;20445;-86
2023/06/27 14:58:01;;;;;;;;;;;;;;;;;;6218210;28;20022;-82
2023/06/27 15:01:01;;;;;;;6.82;1.50;;;;;;;;;;6221247;28;19909;-87
2023/06/27 15:04:06;;;;;;;;;;;;;;;;;;6222161;28;20400;-84
2023/06/27 15:07:07;;;;;;;3.78;1.30;;;;;;;;;;6210653;28;19933;-85
2023/06/27 15:10:07;;;;;;;;;;;;;;;;;;6214178;28;20026;-86
2023/06/27 15:13:07;;;;;;;4.07;1.35;;;;;;;;;;6218118;28;19924;-74
2023/06/27 15:16:08;;;;;;;4.78;2.38;;;;;;;;;;6216294;28;20021;-74
2023/06/27 15:19:08;;;;;;;5.85;2.28;;;;;;;;;;6211916;28;20101;-73
2023/06/27 15:22:08;;;;;;;6.33;1.57;;;;;;;;;;6219584;28;20018;-74
2023/06/27 15:25:09;;;;;;;;;;;;;;;;;;6220312;28;20097;-74
2023/06/27 15:28:09;;;;;;;4.10;1.40;;;;;;;;;;6219975;28;19921;-73
2023/06/27 15:31:11;;;;;;;4.57;1.53;;;;;;;;;;6218083;28;20022;-74
2023/06/27 15:34:11;;;;;;;4.07;1.33;;;;;;;;;;6214785;28;20041;-74
2023/06/27 15:37:11;;;;;;;;;;;;;;;;;;6220457;28;20057;-75
2023/06/27 15:40:12;;;;;;;2.22;1.33;;;;;;;;;;6219252;28;19921;-74
2023/06/27 15:43:12;;;;;;;;;;;;;;;;;;6219687;28;20029;-74
2023/06/27 15:46:12;;;;;;;4.95;1.55;;;;;;;;;;6219071;28;19917;-74
2023/06/27 15:49:12;;;;;;;;;;;;;;;;;;6219875;28;20108;-74
2023/06/27 15:52:13;;;;;;;7.18;1.30;;;;;;;;;;6219186;28;19935;-74
2023/06/27 15:55:14;;;;;;;;;;;;;;;;;;6219413;28;20021;-75
2023/06/27 15:58:14;;;;;;;4.20;1.90;;;;;;;;;;6220307;28;20408;-74
2023/06/27 16:01:14;;;;;;;;;;;;;;;;;;6218646;28;20018;-75
2023/06/27 16:04:14;;;;;;;4.45;1.80;;;;;;;;;;6215342;28;19952;-74
2023/06/27 16:07:15;;;;;;;;;;;;;;;;;;6218909;28;20433;-75
2023/06/27 16:10:15;;;;;;;3.03;1.42;;;;;;;;;;6219715;28;20484;-74
2023/06/27 16:13:15;;;;;;;;;;;;;;;;;;6217863;28;20102;-74
2023/06/27 16:16:16;;;;;;;6.10;2.50;;;;;;;;;;6212190;28;19910;-74
2023/06/27 16:19:17;;;;;;;3.65;1.73;;;;;;;;;;6218102;28;20061;-74
2023/06/27 16:22:17;;;;;;;;;;;;;;;;;;6219019;28;20492;-74
2023/06/27 16:25:17;;;;;;;4.03;1.98;;;;;;;;;;6218222;28;20008;-74
2023/06/27 16:28:17;;;;;;;;;;;;;;;;;;6217731;28;20057;-74
2023/06/27 16:31:17;;;;;;;3.90;1.40;;;;;;;;;;6218204;28;20379;-74
2023/06/27 16:34:18;;;;;;;;;;;;;;;;;;6219903;28;20029;-84
2023/06/27 16:37:18;;;;;;;3.33;1.45;;;;;;;;;;6214821;28;19919;-85
2023/06/27 16:40:18;;;;;;;8.67;2.63;;;;;;;;;;6217847;28;20073;-82
2023/06/27 16:43:18;;;;;;;;;;;;;;;;;;6213800;28;20041;-74
2023/06/27 16:46:18;;;;;;;3.70;1.30;;;;;;;;;;6211900;28;20367;-75
2023/06/27 16:49:19;;;;;;;;;;;;;;;;;;6210817;28;20053;-75
2023/06/27 16:52:20;;;;;;;6.05;2.40;;;;;;;;;;6213653;28;19909;-84
2023/06/27 16:55:20;;;;;;;6.63;2.42;;;;;;;;;;6216478;28;20510;-83
2023/06/27 16:58:20;;;;;;;;;;;;;;;;;;6215726;28;20026;-84
2023/06/27 17:01:21;;;;;;;4.60;2.03;;;;;;;;;;6218923;28;19906;-84
2023/06/27 17:04:21;;;;;;;;;;;;;;;;;;6218633;28;20030;-84
2023/06/27 17:07:21;;;;;;;1.88;1.30;;;;;;;;;;6215355;28;19952;-84
2023/06/27 17:10:21;;;;;;;;;;;;;;;;;;6212250;28;20100;-86
2023/06/27 17:13:24;;;;;;;3.92;1.52;;;;;;;;;;6210530;28;20363;-86
2023/06/27 17:16:24;;;;;;;6.72;1.70;;;;;;;;;;6198604;28;20394;-83
2023/06/27 17:19:25;;;;;;;4.55;1.55;;;;;;;;;;6219000;28;20034;-85
2023/06/27 17:22:25;;;;;;;6.50;2.05;;;;;;;;;;6219379;28;20097;-74
2023/06/27 17:25:26;;;;;;;7.00;1.50;;;;;;;;;;6216835;28;20525;-74
2023/06/27 17:28:27;;;;;;;6.47;1.63;;;;;;;;;;6217031;28;20411;-74
2023/06/27 17:31:27;;;;;;;;;;;;;;;;;;6217047;28;20029;-74
2023/06/27 17:34:27;;;;;;;4.57;1.40;;;;;;;;;;6218954;28;20429;-74
2023/06/27 17:37:28;;;;;;;5.95;2.22;;;;;;;;;;6219014;28;20492;-74
2023/06/27 17:40:28;;;;;;;4.53;2.33;;;;;;;;;;6222446;28;20022;-74
2023/06/27 17:43:28;;;;;;;6.57;2.90;;;;;;;;;;6220345;28;20026;-74
2023/06/27 17:46:28;;;;;;;3.73;2.10;;;;;;;;;;6222039;28;20540;-74
2023/06/27 17:49:28;;;;;;;5.40;2.00;;;;;;;;;;6221017;28;20030;-74
2023/06/27 17:52:29;;;;;;;6.15;2.45;;;;;;;;;;6204457;28;20061;-74
2023/06/27 17:55:29;;;;;;;3.97;2.20;;;;;;;;;;6218872;28;20029;-74
2023/06/27 17:58:29;;;;;;;3.03;1.83;;;;;;;;;;6218537;28;20076;-74
2023/06/27 18:01:29;;;;;;;5.23;1.83;;;;;;;;;;6221546;28;20441;-74
2023/06/27 18:04:30;;;;;;;3.27;1.73;;;;;;;;;;6218207;28;20026;-81